Time;durP1;ratioP1;P1;durP2;ratioP2;P2;SDS_P1;SDS_P2;PMS_P1;PMS_P2;Temp;Humidity;BMP_temperature;BMP_pressure;BME280_temperature;BME280_humidity;BME280_pressure;Samples;Min_cycle;Max_cycle;Signal;HPM_P1;HPM_P2
2021/08/01 00:01:28;;;;;;;3.80;2.70;;;;;;;26.03;82.26;95530.00;5020696;28;20065;-47
2021/08/01 00:03:57;;;;;;;4.35;3.00;;;;;;;26.08;80.57;95531.91;5029847;28;20100;-50
2021/08/01 00:06:27;;;;;;;6.10;2.60;;;;;;;25.99;83.09;95522.69;5022028;28;20065;-49
2021/08/01 00:08:56;;;;;;;5.88;2.90;;;;;;;25.74;86.28;95523.34;5031733;28;20495;-50
2021/08/01 00:11:25;;;;;;;5.82;3.50;;;;;;;25.62;90.29;95507.38;5028513;28;20098;-50
2021/08/01 00:13:53;;;;;;;4.60;3.22;;;;;;;25.33;92.60;95512.38;5012320;28;20069;-51
2021/08/01 00:16:24;;;;;;;5.28;2.85;;;;;;;25.02;99.16;95514.03;5020306;28;20061;-49
2021/08/01 00:18:52;;;;;;;;;;;;;;;25.13;95.98;95498.75;5027425;28;20091;-54
2021/08/01 00:21:21;;;;;;;6.05;3.13;;;;;;;24.64;96.39;95502.41;5029611;28;19940;-49
2021/08/01 00:23:49;;;;;;;4.70;2.90;;;;;;;24.26;100.00;95500.66;5024490;28;20069;-49
2021/08/01 00:26:19;;;;;;;8.57;3.17;;;;;;;24.14;100.00;95500.81;5025924;28;20065;-47
2021/08/01 00:28:47;;;;;;;4.80;3.22;;;;;;;23.97;100.00;95502.78;5026317;28;20104;-47
2021/08/01 00:31:16;;;;;;;5.07;3.28;;;;;;;23.86;100.00;95504.56;5027542;28;20083;-46
2021/08/01 00:33:44;;;;;;;5.15;3.28;;;;;;;24.25;100.00;95504.41;5028128;28;20073;-47
2021/08/01 00:36:13;;;;;;;5.18;3.53;;;;;;;23.90;100.00;95511.06;5033908;28;20065;-52
2021/08/01 00:38:41;;;;;;;6.38;3.50;;;;;;;23.51;100.00;95532.63;5034805;28;20072;-49
2021/08/01 00:41:10;;;;;;;6.32;3.40;;;;;;;23.63;100.00;95519.84;5028995;28;20407;-50
2021/08/01 00:43:40;;;;;;;4.32;3.20;;;;;;;23.06;100.00;95522.84;5024467;28;20076;-48
2021/08/01 00:46:08;;;;;;;4.97;2.90;;;;;;;22.96;100.00;95530.75;5023473;28;20065;-49
2021/08/01 00:48:37;;;;;;;6.25;3.70;;;;;;;22.92;100.00;95530.44;5031564;28;20069;-50
2021/08/01 00:51:07;;;;;;;8.43;4.07;;;;;;;22.70;100.00;95524.91;5026486;28;20076;-50
2021/08/01 00:53:36;;;;;;;5.53;3.70;;;;;;;22.63;100.00;95518.06;5030411;28;20524;-54
2021/08/01 00:56:05;;;;;;;7.43;4.10;;;;;;;22.51;100.00;95515.47;5030265;28;20062;-48
2021/08/01 00:58:33;;;;;;;8.32;4.20;;;;;;;22.32;100.00;95509.50;5022838;28;21373;-53
2021/08/01 01:01:07;;;;;;;8.63;4.45;;;;;;;21.97;100.00;95502.38;5026499;28;20072;-51
2021/08/01 01:03:45;;;;;;;9.07;4.45;;;;;;;21.81;100.00;95500.44;5029602;28;20042;-58
2021/08/01 01:06:19;;;;;;;7.82;5.03;;;;;;;21.77;100.00;95493.94;5030312;28;20107;-55
2021/08/01 01:08:52;;;;;;;11.77;5.07;;;;;;;21.41;100.00;95485.19;5025801;28;20080;-56
2021/08/01 01:11:21;;;;;;;11.18;4.93;;;;;;;21.18;100.00;95483.31;5019191;28;20076;-52
2021/08/01 01:13:51;;;;;;;9.15;5.25;;;;;;;21.14;100.00;95479.47;5032601;28;20084;-55
2021/08/01 01:16:21;;;;;;;;;;;;;;;21.53;100.00;95483.25;5029178;28;20061;-56
2021/08/01 01:18:50;;;;;;;9.13;5.03;;;;;;;21.48;100.00;95482.38;5026884;28;19956;-54
2021/08/01 01:21:39;;;;;;;9.20;4.95;;;;;;;20.98;100.00;95478.31;5033952;28;20068;-56
2021/08/01 01:24:09;;;;;;;8.98;5.18;;;;;;;21.02;100.00;95475.97;5025463;28;20511;-54
2021/08/01 01:26:39;;;;;;;9.75;5.45;;;;;;;20.80;100.00;95481.94;5025369;28;20069;-58
2021/08/01 01:29:15;;;;;;;16.10;5.50;;;;;;;20.73;100.00;95481.22;5017231;28;20111;-55
2021/08/01 01:31:57;;;;;;;12.55;6.45;;;;;;;21.20;100.00;95483.09;5030458;28;20081;-57
2021/08/01 01:34:30;;;;;;;14.02;6.57;;;;;;;20.74;100.00;95485.53;5036659;28;20080;-56
2021/08/01 01:37:02;;;;;;;14.02;6.63;;;;;;;20.92;100.00;95478.44;5025054;28;20080;-57
2021/08/01 01:39:31;;;;;;;12.88;6.38;;;;;;;20.55;100.00;95474.13;5022735;28;20064;-60
2021/08/01 01:42:00;;;;;;;12.63;6.85;;;;;;;20.68;100.00;95473.09;5025601;28;20057;-59
2021/08/01 01:44:29;;;;;;;8.50;6.10;;;;;;;19.97;100.00;95482.78;5024158;28;20077;-59
2021/08/01 01:46:58;;;;;;;10.18;6.53;;;;;;;20.13;100.00;95478.63;5028776;28;20088;-60
2021/08/01 01:49:27;;;;;;;11.25;6.00;;;;;;;19.94;100.00;95471.72;5031598;28;20073;-55
2021/08/01 01:51:55;;;;;;;13.20;6.93;;;;;;;20.10;100.00;95449.69;5028028;28;20065;-56
2021/08/01 01:54:25;;;;;;;19.65;6.72;;;;;;;20.10;100.00;95434.44;5025430;28;20077;-58
2021/08/01 01:56:55;;;;;;;12.93;7.05;;;;;;;20.04;100.00;95427.31;5020566;28;20061;-57
2021/08/01 01:59:23;;;;;;;12.63;7.07;;;;;;;20.26;100.00;95426.75;5022492;28;20092;-55
2021/08/01 02:01:52;;;;;;;14.55;7.50;;;;;;;19.86;100.00;95441.56;5033495;28;20096;-58
2021/08/01 02:04:20;;;;;;;9.38;6.53;;;;;;;19.75;100.00;95437.00;5022062;28;20080;-58
2021/08/01 02:06:49;;;;;;;9.48;6.95;;;;;;;20.21;100.00;95430.13;5031031;28;20069;-57
2021/08/01 02:09:25;;;;;;;15.23;7.38;;;;;;;20.15;100.00;95418.47;5028476;28;20070;-55
2021/08/01 02:12:00;;;;;;;10.32;6.85;;;;;;;19.77;100.00;95404.66;5022670;28;20066;-56
2021/08/01 02:14:31;;;;;;;11.57;7.43;;;;;;;19.88;100.00;95402.00;5002226;28;20065;-55
2021/08/01 02:17:06;;;;;;;10.60;7.50;;;;;;;19.81;100.00;95403.97;5037828;28;20080;-59
2021/08/01 02:19:36;;;;;;;14.05;6.97;;;;;;;19.60;100.00;95399.09;5030853;28;20310;-53
2021/08/01 02:22:06;;;;;;;13.88;7.32;;;;;;;19.77;100.00;95391.28;5026508;28;20068;-55
2021/08/01 02:24:36;;;;;;;19.27;8.45;;;;;;;19.82;100.00;95383.38;5004352;28;20100;-53
2021/08/01 02:27:07;;;;;;;12.80;8.20;;;;;;;19.89;100.00;95390.28;5032365;28;20487;-55
2021/08/01 02:29:36;;;;;;;11.85;7.50;;;;;;;19.85;100.00;95389.09;5028756;28;20179;-58
2021/08/01 02:32:05;;;;;;;17.58;8.70;;;;;;;19.76;100.00;95376.28;5026152;28;20087;-58
2021/08/01 02:34:34;;;;;;;11.53;8.17;;;;;;;19.73;100.00;95374.88;5025875;28;20455;-57
2021/08/01 02:37:03;;;;;;;15.20;8.32;;;;;;;19.86;100.00;95381.91;5030935;28;20531;-58
2021/08/01 02:39:33;;;;;;;12.40;8.20;;;;;;;19.39;100.00;95374.50;5011664;28;20046;-57
2021/08/01 02:42:02;;;;;;;16.30;7.85;;;;;;;19.64;100.00;95370.88;5030874;28;20061;-55
2021/08/01 02:44:34;;;;;;;12.48;7.68;;;;;;;19.44;100.00;95361.28;5029283;28;20057;-57
2021/08/01 02:47:03;;;;;;;14.63;8.00;;;;;;;19.66;100.00;95358.94;5034432;28;20083;-56
2021/08/01 02:49:33;;;;;;;14.88;8.75;;;;;;;19.84;100.00;95375.94;5026050;28;20561;-56
2021/08/01 02:52:03;;;;;;;13.07;8.00;;;;;;;19.42;100.00;95386.59;5028377;28;20072;-54
2021/08/01 02:54:32;;;;;;;10.52;7.10;;;;;;;19.27;100.00;95388.84;5030345;28;20113;-55
2021/08/01 02:57:04;;;;;;;12.32;8.50;;;;;;;19.68;100.00;95362.19;5028901;28;20482;-53
2021/08/01 02:59:34;;;;;;;14.68;8.43;;;;;;;19.50;100.00;95348.03;5024687;28;20552;-56
2021/08/01 03:02:04;;;;;;;18.23;9.25;;;;;;;20.27;100.00;95343.56;5040394;28;20068;-55
2021/08/01 03:04:38;;;;;;;10.55;7.60;;;;;;;19.88;100.00;95353.84;5026264;28;20469;-56
2021/08/01 03:07:07;;;;;;;17.17;7.55;;;;;;;19.54;100.00;95351.88;5028878;28;20060;-55
2021/08/01 03:09:36;;;;;;;11.95;7.88;;;;;;;19.79;100.00;95354.44;5008346;28;20077;-56
2021/08/01 03:12:08;;;;;;;11.65;7.93;;;;;;;19.42;100.00;95346.50;5031593;28;20507;-57
2021/08/01 03:14:39;;;;;;;12.30;8.40;;;;;;;19.44;100.00;95349.75;5033570;28;20056;-55
2021/08/01 03:17:08;;;;;;;9.95;7.53;;;;;;;19.56;100.00;95353.28;5028848;28;20074;-50
2021/08/01 03:19:39;;;;;;;11.43;8.02;;;;;;;19.68;100.00;95364.03;5019103;28;20081;-54
2021/08/01 03:22:08;;;;;;;14.77;7.47;;;;;;;19.76;100.00;95360.25;5030085;28;20456;-56
2021/08/01 03:24:36;;;;;;;16.17;8.10;;;;;;;19.53;100.00;95377.00;5030584;28;20045;-52
2021/08/01 03:27:05;;;;;;;11.65;7.47;;;;;;;19.54;100.00;95379.41;5030786;28;20088;-57
2021/08/01 03:29:34;;;;;;;13.98;7.82;;;;;;;19.73;100.00;95377.56;5036425;28;20539;-54
2021/08/01 03:32:04;;;;;;;9.73;7.18;;;;;;;19.52;100.00;95384.19;5035226;28;20109;-56
2021/08/01 03:34:33;;;;;;;;;;;;;;;19.23;100.00;95383.13;5024176;28;21423;-56
2021/08/01 03:37:01;;;;;;;8.70;6.25;;;;;;;19.12;100.00;95378.53;5028735;28;19960;-55
2021/08/01 03:39:33;;;;;;;11.38;6.05;;;;;;;19.51;100.00;95387.09;5032303;28;20777;-56
2021/08/01 03:42:02;;;;;;;8.63;6.90;;;;;;;19.35;100.00;95392.03;5030776;28;20068;-51
2021/08/01 03:44:31;;;;;;;17.42;6.80;;;;;;;19.60;100.00;95367.81;5030680;28;20068;-54
2021/08/01 03:46:59;;;;;;;9.88;6.80;;;;;;;19.55;100.00;95381.06;5028276;28;20070;-56
2021/08/01 03:49:29;;;;;;;10.65;6.90;;;;;;;19.71;100.00;95378.81;5024536;28;20069;-55
2021/08/01 03:51:57;;;;;;;10.35;6.78;;;;;;;19.62;100.00;95386.34;5027247;28;20057;-56
2021/08/01 03:54:26;;;;;;;13.93;7.20;;;;;;;19.53;100.00;95395.72;5030335;28;20309;-56
2021/08/01 03:56:54;;;;;;;9.50;6.55;;;;;;;19.15;100.00;95445.72;5035895;28;20532;-54
2021/08/01 03:59:23;;;;;;;8.70;6.45;;;;;;;18.67;100.00;95505.16;5027473;28;20081;-56
2021/08/01 04:01:51;;;;;;;10.65;7.47;;;;;;;19.02;100.00;95539.38;5033546;28;20472;-56
2021/08/01 04:04:20;;;;;;;11.43;6.25;;;;;;;17.75;100.00;95535.88;5028850;28;20092;-56
2021/08/01 04:06:49;;;;;;;7.80;4.60;;;;;;;17.91;100.00;95518.63;4979165;28;20129;-55
2021/08/01 04:09:18;;;;;;;1.02;0.98;;;;;;;18.54;100.00;95478.56;5023349;28;20073;-52
2021/08/01 04:11:46;;;;;;;0.98;0.98;;;;;;;18.40;100.00;95439.66;5032609;28;20480;-52
2021/08/01 04:14:14;;;;;;;0.70;0.70;;;;;;;19.11;100.00;95470.47;5022474;28;20468;-52
2021/08/01 04:16:43;;;;;;;0.90;0.90;;;;;;;18.89;100.00;95502.09;5033668;28;20088;-52
2021/08/01 04:19:13;;;;;;;5.00;4.00;;;;;;;18.68;100.00;95503.28;5026483;28;20535;-51
2021/08/01 04:21:42;;;;;;;5.93;4.28;;;;;;;18.86;100.00;95507.91;5031775;28;20084;-50
2021/08/01 04:24:12;;;;;;;5.00;3.90;;;;;;;19.05;100.00;95500.72;5035961;28;20083;-54
2021/08/01 04:26:40;;;;;;;5.65;3.67;;;;;;;18.85;100.00;95503.59;5020191;28;20062;-57
2021/08/01 04:29:09;;;;;;;4.72;3.25;;;;;;;19.03;100.00;95510.81;5021675;28;20080;-54
2021/08/01 04:31:37;;;;;;;4.38;3.08;;;;;;;19.51;100.00;95504.75;5023556;28;20077;-54
2021/08/01 04:34:06;;;;;;;4.65;3.05;;;;;;;19.20;100.00;95510.03;5028277;28;20072;-54
2021/08/01 04:36:34;;;;;;;5.68;3.20;;;;;;;19.03;100.00;95498.28;5026532;28;20069;-55
2021/08/01 04:39:02;;;;;;;4.32;3.00;;;;;;;19.15;100.00;95493.03;5027714;28;20073;-50
2021/08/01 04:41:32;;;;;;;7.18;3.25;;;;;;;19.25;100.00;95501.34;5026738;28;20079;-51
2021/08/01 04:44:01;;;;;;;4.57;2.90;;;;;;;19.22;100.00;95507.13;5028308;28;20566;-56
2021/08/01 04:46:30;;;;;;;3.78;2.95;;;;;;;18.99;100.00;95515.78;5017478;28;20076;-57
2021/08/01 04:48:59;;;;;;;5.22;3.40;;;;;;;19.14;100.00;95528.81;5029903;28;20073;-55
2021/08/01 04:51:27;;;;;;;5.03;3.20;;;;;;;18.88;100.00;95530.69;5013983;28;20068;-52
2021/08/01 04:53:56;;;;;;;3.60;3.08;;;;;;;18.79;100.00;95532.00;5023682;28;20076;-56
2021/08/01 04:56:24;;;;;;;4.65;3.10;;;;;;;18.79;100.00;95537.34;5030193;28;20078;-55
2021/08/01 04:58:54;;;;;;;3.72;2.75;;;;;;;18.95;100.00;95538.63;5032928;28;20529;-52
2021/08/01 05:01:22;;;;;;;3.30;2.78;;;;;;;19.03;100.00;95546.38;5029325;28;20075;-56
2021/08/01 05:03:51;;;;;;;3.47;2.67;;;;;;;19.10;100.00;95543.66;5024287;28;20069;-56
2021/08/01 05:06:19;;;;;;;4.20;2.75;;;;;;;18.79;100.00;95541.84;5031378;28;20075;-57
2021/08/01 05:08:48;;;;;;;6.90;2.92;;;;;;;19.11;100.00;95551.44;5027497;28;20508;-55
2021/08/01 05:11:16;;;;;;;3.10;2.80;;;;;;;19.28;100.00;95553.56;5029205;28;20091;-57
2021/08/01 05:13:45;;;;;;;3.10;2.80;;;;;;;19.04;100.00;95550.69;5022162;28;20520;-58
2021/08/01 05:16:18;;;;;;;3.97;3.33;;;;;;;18.72;100.00;95561.44;5021663;28;20073;-57
2021/08/01 05:18:47;;;;;;;3.10;2.80;;;;;;;19.06;100.00;95561.97;5027890;28;20073;-53
2021/08/01 05:21:20;;;;;;;4.22;3.20;;;;;;;19.09;100.00;95569.53;5024393;28;20072;-55
2021/08/01 05:23:49;;;;;;;3.40;3.10;;;;;;;19.48;100.00;95564.00;5037228;28;20069;-51
2021/08/01 05:26:18;;;;;;;4.63;3.33;;;;;;;19.67;100.00;95563.81;5018517;28;20112;-57
2021/08/01 05:28:47;;;;;;;4.47;3.30;;;;;;;19.54;100.00;95563.94;5027497;28;20069;-54
2021/08/01 05:31:17;;;;;;;3.77;3.40;;;;;;;19.45;100.00;95570.66;5019868;28;20416;-53
2021/08/01 05:33:46;;;;;;;5.18;3.28;;;;;;;19.72;100.00;95571.19;5031869;28;20524;-54
2021/08/01 05:36:14;;;;;;;3.47;3.15;;;;;;;19.53;100.00;95581.03;5028616;28;20080;-55
2021/08/01 05:38:43;;;;;;;6.90;2.83;;;;;;;19.12;100.00;95587.81;5025263;28;20057;-54
2021/08/01 05:41:14;;;;;;;3.53;3.17;;;;;;;19.02;100.00;95595.50;5019795;28;20092;-55
2021/08/01 05:43:42;;;;;;;4.50;3.17;;;;;;;19.28;100.00;95590.97;5022337;28;20096;-51
2021/08/01 05:46:11;;;;;;;3.50;3.20;;;;;;;19.77;100.00;95594.59;5025464;28;20083;-53
2021/08/01 05:48:41;;;;;;;3.42;3.10;;;;;;;19.56;100.00;95602.00;5028818;28;20061;-55
2021/08/01 05:51:10;;;;;;;3.42;3.13;;;;;;;19.20;100.00;95621.44;5031140;28;20581;-55
2021/08/01 05:53:38;;;;;;;4.50;3.38;;;;;;;19.88;100.00;95624.09;5020021;28;20065;-57
2021/08/01 05:56:08;;;;;;;5.47;3.70;;;;;;;19.36;100.00;95628.09;5025234;28;20084;-55
2021/08/01 05:58:36;;;;;;;4.03;3.27;;;;;;;19.48;100.00;95631.72;5019804;28;20076;-54
2021/08/01 06:01:09;;;;;;;4.72;3.35;;;;;;;19.30;100.00;95629.78;5029578;28;20478;-52
2021/08/01 06:03:38;;;;;;;3.92;3.60;;;;;;;19.26;100.00;95635.81;5023047;28;20069;-51
2021/08/01 06:06:14;;;;;;;3.58;3.25;;;;;;;19.50;100.00;95637.63;5015582;28;20057;-53
2021/08/01 06:08:44;;;;;;;2.95;2.65;;;;;;;19.05;100.00;95634.34;5022784;28;20062;-56
2021/08/01 06:11:13;;;;;;;3.25;2.60;;;;;;;19.13;100.00;95642.06;5029154;28;20112;-54
2021/08/01 06:13:42;;;;;;;3.92;2.85;;;;;;;19.21;100.00;95645.31;5026998;28;20527;-53
2021/08/01 06:16:12;;;;;;;3.08;2.60;;;;;;;19.57;100.00;95649.09;5030365;28;20073;-54
2021/08/01 06:18:42;;;;;;;5.20;3.10;;;;;;;19.38;100.00;95656.25;5037658;28;20061;-55
2021/08/01 06:21:15;;;;;;;3.50;2.97;;;;;;;19.07;100.00;95657.13;5020093;28;20082;-57
2021/08/01 06:23:44;;;;;;;4.35;3.20;;;;;;;19.32;100.00;95659.00;5026385;28;20069;-57
2021/08/01 06:26:13;;;;;;;3.58;2.92;;;;;;;19.25;100.00;95655.56;5029300;28;20080;-54
2021/08/01 06:28:41;;;;;;;5.28;3.60;;;;;;;18.92;100.00;95662.78;5024918;28;20668;-51
2021/08/01 06:31:10;;;;;;;3.88;3.53;;;;;;;19.11;100.00;95674.38;5029590;28;20514;-53
2021/08/01 06:33:39;;;;;;;3.97;3.58;;;;;;;18.88;100.00;95679.47;5029745;28;20065;-55
2021/08/01 06:36:10;;;;;;;4.00;3.60;;;;;;;18.88;100.00;95677.59;5016268;28;20068;-54
2021/08/01 06:38:41;;;;;;;5.00;3.35;;;;;;;18.77;100.00;95675.63;5023589;28;20535;-54
2021/08/01 06:41:09;;;;;;;4.95;3.70;;;;;;;18.95;100.00;95678.38;5026335;28;20460;-54
2021/08/01 06:43:38;;;;;;;6.88;2.95;;;;;;;18.68;100.00;95690.22;5021257;28;20460;-57
2021/08/01 06:46:06;;;;;;;4.53;3.10;;;;;;;18.55;100.00;95682.28;5034379;28;20547;-55
2021/08/01 06:48:35;;;;;;;4.10;3.40;;;;;;;18.79;100.00;95694.09;5017330;28;20065;-56
2021/08/01 06:51:03;;;;;;;3.70;3.30;;;;;;;19.02;100.00;95690.88;5029247;28;20062;-50
2021/08/01 06:53:32;;;;;;;6.93;3.83;;;;;;;19.54;100.00;95692.31;5014276;28;20076;-56
2021/08/01 06:56:01;;;;;;;4.95;3.80;;;;;;;19.89;100.00;95687.28;5034829;28;20089;-53
2021/08/01 06:58:30;;;;;;;4.35;3.95;;;;;;;19.62;100.00;95685.88;5019506;28;20321;-52
2021/08/01 07:00:58;;;;;;;4.18;3.70;;;;;;;19.48;100.00;95687.00;5028235;28;20077;-50
2021/08/01 07:03:27;;;;;;;3.90;3.00;;;;;;;19.03;100.00;95682.66;5025516;28;20511;-52
2021/08/01 07:05:56;;;;;;;3.72;2.58;;;;;;;18.83;100.00;95680.13;5025534;28;20080;-55
2021/08/01 07:08:25;;;;;;;3.78;3.10;;;;;;;19.56;100.00;95684.91;5020727;28;22829;-54
2021/08/01 07:10:53;;;;;;;11.63;3.42;;;;;;;19.76;100.00;95675.91;5025031;28;20065;-49
2021/08/01 07:13:23;;;;;;;3.72;2.78;;;;;;;19.32;100.00;95681.19;5030278;28;20095;-51
2021/08/01 07:15:51;;;;;;;3.78;2.67;;;;;;;19.17;100.00;95673.50;5022642;28;20069;-55
2021/08/01 07:18:20;;;;;;;3.95;2.90;;;;;;;19.71;100.00;95673.06;5022272;28;20090;-55
2021/08/01 07:20:48;;;;;;;4.43;2.78;;;;;;;20.31;100.00;95679.41;5025013;28;20061;-54
2021/08/01 07:23:16;;;;;;;3.83;2.60;;;;;;;20.42;100.00;95679.69;5028114;28;20085;-57
2021/08/01 07:25:45;;;;;;;3.58;2.90;;;;;;;20.33;100.00;95685.31;5026910;28;20077;-52
2021/08/01 07:28:14;;;;;;;3.95;2.90;;;;;;;20.46;100.00;95679.00;5035054;28;20141;-55
2021/08/01 07:31:12;;;;;;;3.60;3.10;;;;;;;20.30;100.00;95683.13;5021101;28;20049;-55
2021/08/01 07:33:52;;;;;;;3.28;2.97;;;;;;;20.92;100.00;95685.63;5031872;28;20052;-50
2021/08/01 07:36:23;;;;;;;3.83;2.83;;;;;;;20.78;100.00;95693.00;5012875;28;20037;-53
2021/08/01 07:38:52;;;;;;;3.60;2.80;;;;;;;20.86;100.00;95691.91;5028950;28;20528;-53
2021/08/01 07:41:20;;;;;;;3.67;3.15;;;;;;;21.23;100.00;95689.91;5037191;28;20059;-54
2021/08/01 07:43:51;;;;;;;4.55;3.22;;;;;;;21.29;100.00;95690.81;5028380;28;20088;-54
2021/08/01 07:46:21;;;;;;;3.78;2.80;;;;;;;21.23;100.00;95691.75;5035957;28;20065;-53
2021/08/01 07:48:49;;;;;;;4.80;2.90;;;;;;;20.53;100.00;95711.09;5026270;28;20091;-51
2021/08/01 07:51:17;;;;;;;5.32;3.33;;;;;;;21.13;100.00;95705.75;5024315;28;20063;-49
2021/08/01 07:53:46;;;;;;;3.20;2.90;;;;;;;21.30;100.00;95717.44;5026760;28;20065;-50
2021/08/01 07:56:14;;;;;;;6.50;3.17;;;;;;;21.63;100.00;95715.28;5028733;28;20104;-57
2021/08/01 07:58:43;;;;;;;4.72;3.45;;;;;;;21.08;100.00;95710.97;5036883;28;20080;-53
2021/08/01 08:01:11;;;;;;;4.65;3.10;;;;;;;21.58;100.00;95720.53;5030970;28;20081;-57
2021/08/01 08:03:42;;;;;;;5.75;3.40;;;;;;;21.79;100.00;95719.97;5025900;28;20077;-57
2021/08/01 08:06:10;;;;;;;5.00;3.33;;;;;;;22.23;100.00;95715.06;5022381;28;20107;-53
2021/08/01 08:08:39;;;;;;;3.42;2.80;;;;;;;23.10;100.00;95714.91;5026568;28;20072;-57
2021/08/01 08:11:07;;;;;;;6.20;3.38;;;;;;;23.17;100.00;95715.59;5022703;28;20084;-56
2021/08/01 08:13:36;;;;;;;4.07;2.90;;;;;;;23.21;100.00;95721.28;5031310;28;20085;-56
2021/08/01 08:16:05;;;;;;;6.18;3.35;;;;;;;21.66;100.00;95725.56;5025905;28;20451;-55
2021/08/01 08:18:33;;;;;;;5.13;3.20;;;;;;;21.96;100.00;95717.41;5028226;28;20088;-55
2021/08/01 08:21:03;;;;;;;4.35;3.20;;;;;;;22.03;100.00;95708.16;5022373;28;20052;-55
2021/08/01 08:23:31;;;;;;;3.30;2.80;;;;;;;21.78;100.00;95710.25;5023269;28;20080;-54
2021/08/01 08:26:00;;;;;;;5.57;3.13;;;;;;;21.56;100.00;95710.03;5031115;28;20080;-55
2021/08/01 08:28:28;;;;;;;3.70;3.10;;;;;;;22.24;100.00;95722.88;5025013;28;20484;-58
2021/08/01 08:30:57;;;;;;;5.80;3.60;;;;;;;22.81;100.00;95711.38;5027461;28;20589;-57
2021/08/01 08:33:25;;;;;;;3.95;3.08;;;;;;;22.93;100.00;95711.38;5024373;28;20073;-53
2021/08/01 08:35:53;;;;;;;4.63;3.30;;;;;;;22.41;100.00;95719.47;5025496;28;20070;-50
2021/08/01 08:38:23;;;;;;;4.28;3.22;;;;;;;23.07;100.00;95709.22;5025116;28;20077;-56
2021/08/01 08:40:52;;;;;;;5.78;2.85;;;;;;;23.34;100.00;95704.84;5032459;28;20092;-51
2021/08/01 08:43:20;;;;;;;6.78;3.28;;;;;;;23.53;100.00;95702.72;5020984;28;20069;-51
2021/08/01 08:45:49;;;;;;;5.20;2.97;;;;;;;23.08;100.00;95708.16;5028240;28;20069;-49
2021/08/01 08:48:17;;;;;;;3.60;3.05;;;;;;;23.92;100.00;95710.91;5023830;28;20069;-55
2021/08/01 08:50:50;;;;;;;5.78;2.80;;;;;;;23.24;100.00;95714.63;5033510;28;20057;-52
2021/08/01 08:53:20;;;;;;;4.13;2.97;;;;;;;23.41;100.00;95715.44;5030319;28;20540;-56
2021/08/01 08:55:50;;;;;;;3.38;2.90;;;;;;;22.48;100.00;95714.78;5032943;28;20089;-52
2021/08/01 08:58:21;;;;;;;5.95;3.00;;;;;;;23.26;100.00;95707.91;5019024;28;20061;-54
2021/08/01 09:00:49;;;;;;;5.35;3.20;;;;;;;23.91;100.00;95703.88;5023711;28;20469;-51
2021/08/01 09:03:18;;;;;;;3.28;2.50;;;;;;;23.16;100.00;95705.09;5026114;28;20076;-50
2021/08/01 09:05:46;;;;;;;4.97;3.10;;;;;;;23.65;100.00;95705.34;5026638;28;20068;-56
2021/08/01 09:08:14;;;;;;;3.53;2.60;;;;;;;23.55;100.00;95703.31;5032032;28;20072;-54
2021/08/01 09:10:43;;;;;;;4.47;2.70;;;;;;;24.14;100.00;95708.25;5022303;28;20085;-55
2021/08/01 09:13:13;;;;;;;4.60;2.55;;;;;;;22.65;100.00;95707.59;5027327;28;20073;-51
2021/08/01 09:15:41;;;;;;;4.45;2.50;;;;;;;23.25;100.00;95714.38;5024146;28;20061;-54
2021/08/01 09:18:11;;;;;;;3.42;2.72;;;;;;;23.31;100.00;95716.09;5011475;28;20083;-53
2021/08/01 09:20:48;;;;;;;;;;;;;;;23.03;100.00;95733.09;5023324;28;20473;-52
2021/08/01 09:23:17;;;;;;;4.97;2.28;;;;;;;24.08;97.85;95730.78;5025218;28;19967;-55
2021/08/01 09:25:46;;;;;;;5.55;2.33;;;;;;;24.10;96.31;95739.44;5035875;28;20065;-55
2021/08/01 09:28:18;;;;;;;2.55;2.05;;;;;;;23.00;100.00;95741.63;5021502;28;20085;-53
2021/08/01 09:30:50;;;;;;;3.20;2.60;;;;;;;24.89;100.00;95747.22;5023175;28;20069;-56
2021/08/01 09:33:32;;;;;;;3.25;2.33;;;;;;;24.89;95.42;95741.81;5024345;28;20080;-55
2021/08/01 09:36:08;;;;;;;3.65;2.35;;;;;;;24.99;91.65;95739.25;5027334;28;20516;-56
2021/08/01 09:38:46;;;;;;;3.13;2.05;;;;;;;24.19;96.66;95742.50;5026667;28;20618;-53
2021/08/01 09:41:17;;;;;;;3.17;2.63;;;;;;;24.76;95.18;95729.53;5021008;28;20531;-51
2021/08/01 09:43:49;;;;;;;2.47;2.10;;;;;;;24.01;99.66;95740.91;5024094;28;20077;-52
2021/08/01 09:46:17;;;;;;;3.55;2.58;;;;;;;25.20;90.30;95724.09;5020094;28;20073;-53
2021/08/01 09:48:47;;;;;;;3.42;2.10;;;;;;;25.83;88.05;95724.41;5025430;28;20069;-53
2021/08/01 09:51:17;;;;;;;3.05;2.30;;;;;;;25.47;81.97;95721.41;5027822;28;20065;-54
2021/08/01 09:53:58;;;;;;;2.40;2.15;;;;;;;25.55;80.62;95715.50;5038898;28;20465;-57
2021/08/01 09:56:26;;;;;;;4.20;2.30;;;;;;;25.12;87.04;95721.88;5021151;28;20099;-52
2021/08/01 09:58:56;;;;;;;3.33;2.28;;;;;;;24.67;82.99;95722.13;5029825;28;20073;-53
2021/08/01 10:01:24;;;;;;;2.92;2.05;;;;;;;25.03;84.18;95723.38;5022741;28;20072;-51
2021/08/01 10:03:53;;;;;;;3.05;2.25;;;;;;;25.20;79.51;95713.31;5025334;28;20081;-49
2021/08/01 10:06:23;;;;;;;4.43;2.10;;;;;;;24.90;80.87;95719.19;5030037;28;20076;-53
2021/08/01 10:08:53;;;;;;;3.35;2.40;;;;;;;25.71;82.00;95708.34;5029279;28;20069;-53
2021/08/01 10:11:22;;;;;;;3.65;2.25;;;;;;;26.24;73.07;95705.75;5020504;28;20088;-58
2021/08/01 10:13:53;;;;;;;2.97;2.00;;;;;;;25.96;74.42;95705.03;5027054;28;20082;-53
2021/08/01 10:16:23;;;;;;;3.63;2.42;;;;;;;25.52;75.02;95713.31;5024684;28;20068;-53
2021/08/01 10:18:52;;;;;;;3.08;2.28;;;;;;;25.31;81.39;95708.81;5021880;28;20057;-51
2021/08/01 10:21:22;;;;;;;2.28;2.08;;;;;;;25.30;76.95;95702.63;5031960;28;20067;-54
2021/08/01 10:23:54;;;;;;;2.83;2.33;;;;;;;25.20;81.04;95707.91;5027247;28;20072;-54
2021/08/01 10:26:25;;;;;;;3.95;2.22;;;;;;;25.49;82.25;95710.31;5024932;28;20488;-51
2021/08/01 10:28:55;;;;;;;2.67;2.10;;;;;;;25.33;75.83;95704.00;5027606;28;20077;-56
2021/08/01 10:31:29;;;;;;;3.25;2.20;;;;;;;25.67;81.31;95696.44;5034230;28;20080;-55
2021/08/01 10:34:00;;;;;;;2.85;1.95;;;;;;;25.83;76.40;95701.97;5027248;28;20070;-53
2021/08/01 10:36:30;;;;;;;3.85;2.30;;;;;;;25.12;78.65;95715.66;5028879;28;20523;-52
2021/08/01 10:39:01;;;;;;;2.40;2.17;;;;;;;24.34;78.88;95716.59;5026808;28;20061;-54
2021/08/01 10:41:32;;;;;;;2.80;2.17;;;;;;;23.79;94.54;95717.44;5024751;28;20045;-53
2021/08/01 10:44:06;;;;;;;3.00;2.20;;;;;;;24.95;84.61;95718.41;5025845;28;20478;-52
2021/08/01 10:46:36;;;;;;;4.75;2.17;;;;;;;25.74;88.99;95709.72;5022255;28;20475;-57
2021/08/01 10:49:09;;;;;;;3.10;2.40;;;;;;;25.03;79.61;95717.97;5031177;28;20064;-53
2021/08/01 10:51:38;;;;;;;3.20;2.10;;;;;;;24.32;90.04;95720.59;5019126;28;20062;-53
2021/08/01 10:54:34;;;;;;;2.53;2.20;;;;;;;24.44;89.42;95718.66;5018264;28;20064;-55
2021/08/01 10:57:13;;;;;;;3.17;2.03;;;;;;;24.44;85.75;95721.34;5022423;28;20068;-53
2021/08/01 11:00:05;;;;;;;3.08;2.17;;;;;;;24.42;99.26;95725.34;5035212;28;20516;-57
2021/08/01 11:02:35;;;;;;;3.92;2.53;;;;;;;24.33;95.46;95724.94;5037583;28;20061;-54
2021/08/01 11:05:40;;;;;;;6.30;2.70;;;;;;;24.67;100.00;95722.13;5024101;28;20088;-54
2021/08/01 11:08:11;;;;;;;2.95;2.22;;;;;;;24.28;100.00;95724.84;5023795;28;20055;-55
2021/08/01 11:10:41;;;;;;;3.08;2.50;;;;;;;24.37;100.00;95726.88;5020136;28;20104;-58
2021/08/01 11:13:38;;;;;;;;;;;;;;;23.63;100.00;95734.38;5028234;28;20076;-54
2021/08/01 11:16:09;;;;;;;4.22;2.40;;;;;;;24.53;100.00;95733.28;4985402;28;19964;-52
2021/08/01 11:18:40;;;;;;;4.05;2.80;;;;;;;23.97;100.00;95737.09;5025956;28;20460;-49
2021/08/01 11:21:10;;;;;;;3.55;2.60;;;;;;;23.56;100.00;95739.09;5027923;28;20450;-53
2021/08/01 11:24:12;;;;;;;3.90;2.45;;;;;;;23.48;100.00;95736.81;5017401;28;20081;-54
2021/08/01 11:27:08;;;;;;;4.55;2.65;;;;;;;23.45;100.00;95743.50;5029012;28;20065;-52
2021/08/01 11:30:01;;;;;;;3.65;2.40;;;;;;;23.09;100.00;95750.09;5024547;28;20068;-49
2021/08/01 11:32:45;;;;;;;5.15;2.58;;;;;;;22.82;100.00;95749.84;5023877;28;20072;-50
2021/08/01 11:35:17;;;;;;;4.03;2.75;;;;;;;23.03;100.00;95754.59;5025683;28;20089;-52
2021/08/01 11:37:46;;;;;;;4.70;2.80;;;;;;;22.64;100.00;95754.34;5018373;28;20095;-54
2021/08/01 11:40:14;;;;;;;3.38;2.40;;;;;;;23.20;100.00;95766.22;5029953;28;20069;-50
2021/08/01 11:42:43;;;;;;;4.63;2.80;;;;;;;24.13;100.00;95755.09;5025652;28;20445;-51